Etusivu
METAR-TAF:

METAR-TAF

Lentoasemat :

Bahía Blanca, Argentiina

Leveyspiiri: 38-44S, Pituuspiiri: 062-10W, korkeus merenpinnasta: 75 m

Tämänhetkinen sää

Tämä raportti tehtiin 15 tuntia ja 40 minuuttia sitten, kello 01.45 UTC
Tuuli 9 kn idästä/kaakosta
Lämpötila 16°C
Kosteus 94%
Ilmanpaine 1009 hPa
Näkyvyys 10 km tai enemmän
Muutamia pilviä 3500 ft:n korkeudessa, Cumulonimbus.
Pilvistä 5600 ft:n korkeudessa
ukkosmyrsky, sadetta

METAR: SAZB 140145Z 11009KT 9999 TSRA FEW035CB OVC056 16/15 Q1009

Aika: 14:25 (17:25 UTC)


TAF: puuttuu

Säähavainnot ja -ennusteet yli 4000 lentoasemalta (METAR- ja TAF-raportit).

Käytössä olevat sääasemat on merkitty karttaan keltaisilla ja punaisilla pisteillä.

Aseta hiiri pisteen päälle nähdäksesi sääaseman nimen.

Klikkaa sitten nähdäksesi säähavainnot ja -ennusteet.

Kartan vaihtaminen: klikkaa mustalla rastilla varustettuja vihreitä pisteitä, niin voit zoomata sisään; viivalla varustettua vihreää pistettä, niin voit zoomata ulos tai vihreitä nuolia, niin pääset viereisille kartoille.


METAR-TAF: